Time;durP1;ratioP1;P1;durP2;ratioP2;P2;SDS_P1;SDS_P2;PMS_P1;PMS_P2;Temp;Humidity;BMP_temperature;BMP_pressure;BME280_temperature;BME280_humidity;BME280_pressure;Samples;Min_cycle;Max_cycle;Signal;HPM_P1;HPM_P2
2022/12/01 00:00:34;;;;;;;10.82;4.37;;;;;;;;;;1707800;84;21095;-61
2022/12/01 00:03:01;;;;;;;10.60;4.47;;;;;;;;;;1710132;83;21055;-60
2022/12/01 00:05:27;;;;;;;8.38;4.17;;;;;;;;;;1712074;83;21084;-61
2022/12/01 00:07:53;;;;;;;9.35;4.17;;;;;;;;;;1716408;83;21044;-61
2022/12/01 00:10:25;;;;;;;7.70;4.03;;;;;;;;;;1708295;83;21114;-61
2022/12/01 00:12:56;;;;;;;6.95;4.17;;;;;;;;;;1712790;84;21017;-61
2022/12/01 00:15:26;;;;;;;11.88;4.35;;;;;;;;;;1712102;83;21075;-60
2022/12/01 00:17:52;;;;;;;7.22;4.12;;;;;;;;;;1712232;84;21024;-60
2022/12/01 00:20:18;;;;;;;8.15;4.45;;;;;;;;;;1708870;84;21067;-60
2022/12/01 00:22:45;;;;;;;7.58;3.77;;;;;;;;;;1708482;83;21547;-60
2022/12/01 00:25:13;;;;;;;8.23;3.65;;;;;;;;;;1711033;84;21040;-61
2022/12/01 00:27:39;;;;;;;7.55;3.65;;;;;;;;;;1708074;84;21091;-61
2022/12/01 00:30:07;;;;;;;12.10;4.12;;;;;;;;;;1708063;83;21048;-61
2022/12/01 00:32:33;;;;;;;8.58;4.40;;;;;;;;;;1715001;83;21459;-60
2022/12/01 00:35:00;;;;;;;10.38;3.70;;;;;;;;;;1709244;84;21079;-61
2022/12/01 00:37:28;;;;;;;7.65;3.95;;;;;;;;;;1707891;84;21052;-61
2022/12/01 00:39:54;;;;;;;11.85;5.15;;;;;;;;;;1707855;84;20977;-60
2022/12/01 00:42:20;;;;;;;6.78;3.83;;;;;;;;;;1707859;84;21059;-61
2022/12/01 00:44:46;;;;;;;6.65;4.12;;;;;;;;;;1717488;83;21493;-61
2022/12/01 00:47:12;;;;;;;9.08;4.30;;;;;;;;;;1708009;84;20968;-60
2022/12/01 00:49:38;;;;;;;6.17;3.87;;;;;;;;;;1707711;84;21016;-61
2022/12/01 00:52:05;;;;;;;10.40;4.15;;;;;;;;;;1716464;83;21078;-60
2022/12/01 00:54:31;;;;;;;9.90;4.40;;;;;;;;;;1683076;84;21104;-61
2022/12/01 00:56:58;;;;;;;8.45;3.80;;;;;;;;;;1683574;85;21052;-60
2022/12/01 00:59:24;;;;;;;11.97;3.85;;;;;;;;;;1694164;85;21048;-61
2022/12/01 01:01:50;;;;;;;7.28;3.92;;;;;;;;;;1692565;85;21021;-60
2022/12/01 01:04:17;;;;;;;8.38;3.77;;;;;;;;;;1691570;85;21583;-60
2022/12/01 01:06:44;;;;;;;7.70;3.85;;;;;;;;;;1679647;85;21037;-60
2022/12/01 01:09:10;;;;;;;9.68;4.80;;;;;;;;;;1683009;85;21021;-61
2022/12/01 01:11:36;;;;;;;7.65;3.15;;;;;;;;;;1666985;85;21477;-61
2022/12/01 01:14:02;;;;;;;9.70;4.08;;;;;;;;;;1672276;85;21060;-61
2022/12/01 01:16:28;;;;;;;7.92;3.72;;;;;;;;;;1667591;85;21061;-61
2022/12/01 01:18:56;;;;;;;11.53;3.72;;;;;;;;;;1668278;85;22045;-60
2022/12/01 01:21:23;;;;;;;7.80;3.92;;;;;;;;;;1693136;85;21021;-60
2022/12/01 01:23:50;;;;;;;10.32;3.92;;;;;;;;;;1694273;85;21515;-60
2022/12/01 01:26:18;;;;;;;7.35;3.40;;;;;;;;;;1690900;85;21068;-60
2022/12/01 01:28:44;;;;;;;8.90;3.67;;;;;;;;;;1676971;85;21802;-60
2022/12/01 01:31:11;;;;;;;8.40;3.98;;;;;;;;;;1679015;85;21045;-61
2022/12/01 01:33:37;;;;;;;9.40;3.65;;;;;;;;;;1690715;85;21580;-60
2022/12/01 01:36:04;;;;;;;10.00;3.80;;;;;;;;;;1687290;85;21495;-60
2022/12/01 01:38:30;;;;;;;10.90;3.70;;;;;;;;;;1671128;86;21127;-61
2022/12/01 01:40:57;;;;;;;7.00;3.80;;;;;;;;;;1671023;86;21060;-61
2022/12/01 01:43:37;;;;;;;13.85;4.53;;;;;;;;;;1671101;86;21171;-61
2022/12/01 01:46:04;;;;;;;9.10;4.50;;;;;;;;;;1635230;86;21111;-61
2022/12/01 01:48:31;;;;;;;6.65;3.47;;;;;;;;;;1678239;85;22140;-61
2022/12/01 01:50:58;;;;;;;7.30;3.65;;;;;;;;;;1681088;85;21132;-61
2022/12/01 01:53:24;;;;;;;6.17;3.25;;;;;;;;;;1655001;86;21051;-60
2022/12/01 01:55:50;;;;;;;7.85;4.30;;;;;;;;;;1673049;86;21586;-60
2022/12/01 01:58:16;;;;;;;7.20;3.50;;;;;;;;;;1668756;85;22140;-61
2022/12/01 02:03:31;;;;;;;9.45;3.70;;;;;;;;;;1685259;79;78335;-60
2022/12/01 02:05:57;;;;;;;6.85;3.55;;;;;;;;;;1715086;83;20998;-60
2022/12/01 02:08:24;;;;;;;6.95;3.92;;;;;;;;;;1697880;83;21020;-60
2022/12/01 02:10:55;;;;;;;8.75;3.87;;;;;;;;;;1696630;84;21874;-60
2022/12/01 02:13:26;;;;;;;9.60;4.92;;;;;;;;;;1700079;84;21078;-60
2022/12/01 02:15:55;;;;;;;11.57;5.12;;;;;;;;;;1697503;83;21507;-60
2022/12/01 02:18:29;;;;;;;8.43;4.40;;;;;;;;;;1700348;84;21079;-60
2022/12/01 02:21:00;;;;;;;9.10;4.97;;;;;;;;;;1667595;85;21048;-60
2022/12/01 02:23:40;;;;;;;9.15;4.53;;;;;;;;;;1700429;84;21036;-60
2022/12/01 02:26:23;;;;;;;10.43;5.00;;;;;;;;;;1666901;86;21116;-61
2022/12/01 02:28:51;;;;;;;7.33;4.33;;;;;;;;;;1694485;84;21004;-61
2022/12/01 02:31:18;;;;;;;9.68;3.95;;;;;;;;;;1722273;83;21036;-61
2022/12/01 02:33:49;;;;;;;7.67;4.58;;;;;;;;;;1722221;83;21051;-61
2022/12/01 02:36:21;;;;;;;12.00;4.60;;;;;;;;;;1722213;83;21049;-61
2022/12/01 02:38:48;;;;;;;9.28;4.55;;;;;;;;;;1722316;83;21526;-60
2022/12/01 02:41:18;;;;;;;7.85;4.90;;;;;;;;;;1721890;83;21064;-60
2022/12/01 02:43:55;;;;;;;9.03;4.40;;;;;;;;;;1722172;83;21083;-61
2022/12/01 02:46:23;;;;;;;6.80;4.22;;;;;;;;;;1722518;83;21542;-61
2022/12/01 02:48:50;;;;;;;5.83;3.80;;;;;;;;;;1683267;84;21053;-61
2022/12/01 02:51:21;;;;;;;8.10;4.50;;;;;;;;;;1666393;86;21090;-61
2022/12/01 02:53:47;;;;;;;6.90;4.50;;;;;;;;;;1702692;84;22222;-60
2022/12/01 02:56:14;;;;;;;6.45;3.87;;;;;;;;;;1702737;84;21083;-60
2022/12/01 02:58:41;;;;;;;9.33;4.47;;;;;;;;;;1700103;84;21033;-60
2022/12/01 06:05:17;;;;;;;9.55;5.10;;;;;;;;;;1823656;78;28265;-62
2022/12/01 06:07:44;;;;;;;13.48;4.78;;;;;;;;;;1798174;79;22051;-62
2022/12/01 06:10:11;;;;;;;9.65;5.35;;;;;;;;;;1787206;79;21518;-61
2022/12/01 06:12:37;;;;;;;9.05;4.55;;;;;;;;;;1774180;80;21040;-61
2022/12/01 06:15:03;;;;;;;9.18;5.20;;;;;;;;;;1753831;81;21047;-61
2022/12/01 06:17:29;;;;;;;9.00;4.78;;;;;;;;;;1792315;79;21582;-61
2022/12/01 06:19:56;;;;;;;8.68;4.87;;;;;;;;;;1743387;81;21083;-61
2022/12/01 06:22:22;;;;;;;6.65;4.05;;;;;;;;;;1744134;81;21020;-60
2022/12/01 06:24:48;;;;;;;7.40;4.05;;;;;;;;;;1769927;80;21558;-62
2022/12/01 06:27:15;;;;;;;9.78;4.80;;;;;;;;;;1776678;80;21130;-64
2022/12/01 06:29:41;;;;;;;7.33;4.10;;;;;;;;;;1757669;80;21107;-62
2022/12/01 06:32:08;;;;;;;6.62;4.30;;;;;;;;;;1769354;80;21081;-62
2022/12/01 06:34:35;;;;;;;7.42;3.98;;;;;;;;;;1773205;80;21055;-61
2022/12/01 06:37:01;;;;;;;7.83;4.22;;;;;;;;;;1796368;79;21067;-61
2022/12/01 06:39:27;;;;;;;11.75;5.05;;;;;;;;;;1793301;80;21563;-61
2022/12/01 06:41:53;;;;;;;9.33;4.47;;;;;;;;;;1798491;79;21028;-62
2022/12/01 06:44:19;;;;;;;13.15;5.42;;;;;;;;;;1796141;79;21068;-61
2022/12/01 06:46:45;;;;;;;10.55;5.40;;;;;;;;;;1787571;79;21067;-61
2022/12/01 06:49:11;;;;;;;9.45;5.25;;;;;;;;;;1791742;78;21460;-61
2022/12/01 06:51:38;;;;;;;8.73;4.70;;;;;;;;;;1785588;78;21023;-61
2022/12/01 06:54:04;;;;;;;8.70;4.15;;;;;;;;;;1765743;80;21041;-62
2022/12/01 06:56:31;;;;;;;10.65;5.08;;;;;;;;;;1724261;82;21091;-62
2022/12/01 06:58:57;;;;;;;9.05;4.90;;;;;;;;;;1742029;82;21013;-62
2022/12/01 07:01:23;;;;;;;9.75;4.92;;;;;;;;;;1743854;81;21031;-61
2022/12/01 07:03:49;;;;;;;10.00;5.08;;;;;;;;;;1745304;81;21067;-61
2022/12/01 07:06:16;;;;;;;12.47;5.40;;;;;;;;;;1728429;82;20950;-62
2022/12/01 07:08:43;;;;;;;10.43;4.58;;;;;;;;;;1756278;80;21075;-60
2022/12/01 07:11:15;;;;;;;10.35;4.92;;;;;;;;;;1761521;81;21028;-62
2022/12/01 07:13:39;;;;;;;9.78;5.05;;;;;;;;;;1760896;80;21047;-63
2022/12/01 07:16:06;;;;;;;8.63;4.87;;;;;;;;;;1742881;81;21423;-62
2022/12/01 07:18:32;;;;;;;10.82;4.70;;;;;;;;;;1723194;81;21583;-61
2022/12/01 07:21:01;;;;;;;10.38;5.03;;;;;;;;;;1751377;81;21415;-60
2022/12/01 07:23:28;;;;;;;8.93;4.72;;;;;;;;;;1749240;81;21024;-61
2022/12/01 07:25:59;;;;;;;8.73;4.55;;;;;;;;;;1727809;81;21063;-60
2022/12/01 07:28:25;;;;;;;10.30;5.30;;;;;;;;;;1733151;81;21053;-62
2022/12/01 07:30:52;;;;;;;9.30;4.75;;;;;;;;;;1710627;81;21083;-61
2022/12/01 07:33:18;;;;;;;9.05;5.00;;;;;;;;;;1735504;80;21068;-61
2022/12/01 07:35:44;;;;;;;10.13;4.05;;;;;;;;;;1755422;81;21028;-60
2022/12/01 07:38:10;;;;;;;5.65;3.72;;;;;;;;;;1751721;81;21072;-61
2022/12/01 07:40:37;;;;;;;7.20;4.12;;;;;;;;;;1743258;81;21488;-60
2022/12/01 07:43:03;;;;;;;11.33;4.12;;;;;;;;;;1755717;81;21099;-61
2022/12/01 07:45:29;;;;;;;10.50;4.78;;;;;;;;;;1734000;81;22178;-70
2022/12/01 07:47:55;;;;;;;14.65;4.30;;;;;;;;;;1754007;81;21036;-69
2022/12/01 07:50:21;;;;;;;7.58;3.90;;;;;;;;;;1736671;81;21172;-74
2022/12/01 07:52:48;;;;;;;9.28;4.42;;;;;;;;;;1704883;83;21068;-74
2022/12/01 07:55:15;;;;;;;8.28;4.45;;;;;;;;;;1759083;81;21020;-74
2022/12/01 07:57:41;;;;;;;10.45;4.53;;;;;;;;;;1730218;83;21561;-74
2022/12/01 08:00:07;;;;;;;9.25;4.33;;;;;;;;;;1731892;83;21516;-73
2022/12/01 08:02:35;;;;;;;10.03;4.92;;;;;;;;;;1742425;82;21063;-74
2022/12/01 08:05:01;;;;;;;10.75;4.97;;;;;;;;;;1741778;82;21571;-74
2022/12/01 08:07:27;;;;;;;8.50;4.80;;;;;;;;;;1720586;82;21056;-74
2022/12/01 08:09:54;;;;;;;7.97;4.50;;;;;;;;;;1728657;81;21056;-74
2022/12/01 08:12:20;;;;;;;8.43;4.45;;;;;;;;;;1722431;83;21091;-72
2022/12/01 08:14:46;;;;;;;8.20;4.65;;;;;;;;;;1758192;80;21083;-73
2022/12/01 08:17:12;;;;;;;8.08;4.67;;;;;;;;;;1755231;81;21111;-73
2022/12/01 08:19:39;;;;;;;9.30;4.72;;;;;;;;;;1747840;80;21060;-72
2022/12/01 08:22:05;;;;;;;6.40;3.75;;;;;;;;;;1762368;81;21139;-71
2022/12/01 08:24:31;;;;;;;8.73;5.22;;;;;;;;;;1757272;81;21056;-71
2022/12/01 08:26:57;;;;;;;12.07;4.78;;;;;;;;;;1752051;80;21519;-71
2022/12/01 08:29:24;;;;;;;9.65;4.55;;;;;;;;;;1765011;81;21044;-71
2022/12/01 08:31:50;;;;;;;10.82;4.83;;;;;;;;;;1743423;80;20992;-72
2022/12/01 08:34:17;;;;;;;7.05;4.15;;;;;;;;;;1742320;81;21123;-72
2022/12/01 08:36:43;;;;;;;10.93;5.17;;;;;;;;;;1756127;81;21428;-73
2022/12/01 08:39:10;;;;;;;7.72;4.95;;;;;;;;;;1717344;83;21056;-72
2022/12/01 08:41:37;;;;;;;10.25;5.03;;;;;;;;;;1753912;81;21598;-71
2022/12/01 08:44:03;;;;;;;10.05;4.53;;;;;;;;;;1736125;81;20989;-71
2022/12/01 08:46:31;;;;;;;10.38;5.03;;;;;;;;;;1727220;81;21018;-71
2022/12/01 08:48:57;;;;;;;8.98;4.90;;;;;;;;;;1759211;80;21011;-71
2022/12/01 08:51:23;;;;;;;9.85;5.33;;;;;;;;;;1722812;81;21050;-71
2022/12/01 08:53:49;;;;;;;10.03;4.72;;;;;;;;;;1764189;81;21107;-70
2022/12/01 08:56:18;;;;;;;9.28;4.75;;;;;;;;;;1753277;81;21040;-73
2022/12/01 08:58:44;;;;;;;8.35;4.97;;;;;;;;;;1752369;81;21007;-74
2022/12/01 09:01:11;;;;;;;8.85;4.50;;;;;;;;;;1724974;83;21016;-76
2022/12/01 09:03:37;;;;;;;11.55;4.55;;;;;;;;;;1760178;81;21032;-74
2022/12/01 09:06:04;;;;;;;8.15;4.47;;;;;;;;;;1715715;83;21097;-72
2022/12/01 09:08:31;;;;;;;7.65;4.35;;;;;;;;;;1714624;83;21060;-74
2022/12/01 09:10:58;;;;;;;8.00;3.90;;;;;;;;;;1722875;81;21032;-73
2022/12/01 09:13:24;;;;;;;5.30;3.45;;;;;;;;;;1735971;81;21467;-73
2022/12/01 09:15:55;;;;;;;8.70;4.20;;;;;;;;;;1720403;83;21119;-73
2022/12/01 09:18:21;;;;;;;7.95;4.03;;;;;;;;;;1724982;82;21021;-75
2022/12/01 09:20:47;;;;;;;7.50;3.90;;;;;;;;;;1721194;82;21022;-74
2022/12/01 09:35:20;;;;;;;7.35;4.45;;;;;;;;;;1777023;79;28212;-68
2022/12/01 09:37:46;;;;;;;7.33;4.17;;;;;;;;;;1737917;82;21028;-68
2022/12/01 09:40:13;;;;;;;8.28;4.55;;;;;;;;;;1714937;83;21073;-68
2022/12/01 09:42:39;;;;;;;7.05;4.42;;;;;;;;;;1765358;81;21525;-69
2022/12/01 09:45:06;;;;;;;7.45;4.12;;;;;;;;;;1760531;80;21073;-70
2022/12/01 09:47:34;;;;;;;8.40;3.77;;;;;;;;;;1729031;81;21499;-68
2022/12/01 09:50:11;;;;;;;6.12;3.72;;;;;;;;;;1740316;82;22202;-67
2022/12/01 09:52:42;;;;;;;8.20;4.22;;;;;;;;;;1731653;80;21089;-69
2022/12/01 09:55:11;;;;;;;8.03;4.45;;;;;;;;;;1708895;84;21083;-67
2022/12/01 09:57:39;;;;;;;7.65;4.30;;;;;;;;;;1739590;81;21142;-68
2022/12/01 10:00:13;;;;;;;5.60;3.50;;;;;;;;;;1736384;81;21020;-68
2022/12/01 10:02:40;;;;;;;6.20;3.45;;;;;;;;;;1730517;82;21031;-68
2022/12/01 10:05:14;;;;;;;7.28;4.00;;;;;;;;;;1709280;84;21067;-67
2022/12/01 10:07:48;;;;;;;10.08;4.08;;;;;;;;;;1708753;84;21065;-67
2022/12/01 10:10:16;;;;;;;5.55;3.35;;;;;;;;;;1718766;80;21118;-68
2022/12/01 10:12:44;;;;;;;7.65;3.30;;;;;;;;;;1771940;80;21456;-68
2022/12/01 10:15:19;;;;;;;5.05;3.45;;;;;;;;;;1753487;82;21060;-67
2022/12/01 10:17:56;;;;;;;6.45;3.72;;;;;;;;;;1754100;82;21037;-66
2022/12/01 10:20:24;;;;;;;6.62;3.10;;;;;;;;;;1727909;82;21566;-66
2022/12/01 10:22:52;;;;;;;8.68;3.55;;;;;;;;;;1724395;83;21064;-66
2022/12/01 10:25:20;;;;;;;4.95;3.42;;;;;;;;;;1772137;80;21079;-66
2022/12/01 10:27:51;;;;;;;5.42;2.92;;;;;;;;;;1708798;84;21098;-66
2022/12/01 10:30:19;;;;;;;4.95;3.08;;;;;;;;;;1711442;81;21106;-68
2022/12/01 10:32:56;;;;;;;4.97;2.90;;;;;;;;;;1757003;82;21058;-67
2022/12/01 10:35:24;;;;;;;7.85;3.60;;;;;;;;;;1768429;80;21032;-67
2022/12/01 10:37:57;;;;;;;7.35;3.65;;;;;;;;;;1787700;80;21347;-66
2022/12/01 10:40:24;;;;;;;4.00;2.77;;;;;;;;;;1787622;80;21052;-67
2022/12/01 10:42:50;;;;;;;6.70;3.35;;;;;;;;;;1751247;80;21078;-66
2022/12/01 10:45:25;;;;;;;5.45;3.22;;;;;;;;;;1757841;80;21206;-65
2022/12/01 10:48:08;;;;;;;5.60;3.08;;;;;;;;;;1729729;81;21084;-65
2022/12/01 10:50:35;;;;;;;8.43;2.92;;;;;;;;;;1742781;82;21021;-66
2022/12/01 10:53:01;;;;;;;8.58;3.22;;;;;;;;;;1732785;81;21056;-66
2022/12/01 10:55:29;;;;;;;4.47;2.90;;;;;;;;;;1737964;81;21475;-66
2022/12/01 10:57:56;;;;;;;5.42;2.77;;;;;;;;;;1734608;81;21048;-68
2022/12/01 11:00:24;;;;;;;4.78;3.02;;;;;;;;;;1747443;81;21071;-66
2022/12/01 11:02:50;;;;;;;4.47;2.92;;;;;;;;;;1757879;80;22283;-66
2022/12/01 11:05:18;;;;;;;7.70;3.30;;;;;;;;;;1733897;81;21047;-65
2022/12/01 11:07:45;;;;;;;6.12;2.98;;;;;;;;;;1717675;82;21145;-67
2022/12/01 11:10:16;;;;;;;6.80;3.45;;;;;;;;;;1749411;81;21068;-66
2022/12/01 11:12:44;;;;;;;5.83;3.62;;;;;;;;;;1741251;81;21040;-66
2022/12/01 11:15:20;;;;;;;7.47;3.45;;;;;;;;;;1729111;81;21386;-69
2022/12/01 11:31:05;;;;;;;9.48;3.60;;;;;;;;;;1830845;77;22109;-67
2022/12/01 11:33:33;;;;;;;6.05;3.92;;;;;;;;;;1803970;78;21051;-67
2022/12/01 11:35:59;;;;;;;6.90;3.65;;;;;;;;;;1792646;78;20999;-67
2022/12/01 11:38:27;;;;;;;5.58;3.20;;;;;;;;;;1800321;78;21515;-67
2022/12/01 11:40:54;;;;;;;8.30;3.95;;;;;;;;;;1796691;78;21052;-65
2022/12/01 11:43:21;;;;;;;6.05;3.95;;;;;;;;;;1807708;78;21001;-67
2022/12/01 11:45:48;;;;;;;8.85;4.42;;;;;;;;;;1791691;78;21033;-65
2022/12/01 11:48:22;;;;;;;5.60;3.35;;;;;;;;;;1804121;78;21010;-67
2022/12/01 11:51:02;;;;;;;5.60;3.60;;;;;;;;;;1793276;78;21540;-66
2022/12/01 11:53:37;;;;;;;8.33;4.35;;;;;;;;;;1793987;78;21080;-67
2022/12/01 11:56:13;;;;;;;7.92;4.33;;;;;;;;;;1791390;78;21032;-66
2022/12/01 11:58:41;;;;;;;7.67;4.10;;;;;;;;;;1798174;78;21508;-67
2022/12/01 12:01:18;;;;;;;6.03;3.77;;;;;;;;;;1796043;78;21341;-66
2022/12/01 12:03:46;;;;;;;6.15;4.12;;;;;;;;;;1796827;78;21560;-67
2022/12/01 12:06:13;;;;;;;6.67;3.62;;;;;;;;;;1798303;78;21021;-65
2022/12/01 12:08:45;;;;;;;8.10;3.72;;;;;;;;;;1796534;78;21539;-66
2022/12/01 12:11:16;;;;;;;5.78;3.37;;;;;;;;;;1797168;78;21539;-66
2022/12/01 12:13:44;;;;;;;7.10;3.58;;;;;;;;;;1792737;78;21504;-66
2022/12/01 12:16:28;;;;;;;7.72;4.05;;;;;;;;;;1801128;78;20945;-66
2022/12/01 12:19:05;;;;;;;6.90;4.45;;;;;;;;;;1793154;78;21056;-65
2022/12/01 12:21:33;;;;;;;6.60;3.72;;;;;;;;;;1792993;78;21634;-67
2022/12/01 12:24:07;;;;;;;6.20;3.47;;;;;;;;;;1797486;78;21038;-67
2022/12/01 12:26:41;;;;;;;5.35;3.77;;;;;;;;;;1796402;78;21492;-68
2022/12/01 12:29:18;;;;;;;7.62;3.47;;;;;;;;;;1794591;78;21559;-67
2022/12/01 12:31:52;;;;;;;6.83;3.67;;;;;;;;;;1792072;79;21079;-66
2022/12/01 12:34:22;;;;;;;8.28;3.60;;;;;;;;;;1788740;79;21048;-68
2022/12/01 12:36:53;;;;;;;7.72;3.70;;;;;;;;;;1759314;78;21555;-66
2022/12/01 12:39:30;;;;;;;9.08;5.20;;;;;;;;;;1786149;78;21031;-66
2022/12/01 12:41:56;;;;;;;8.40;4.65;;;;;;;;;;1790023;78;21004;-66
2022/12/01 12:44:37;;;;;;;6.50;4.08;;;;;;;;;;1789765;78;21070;-67
2022/12/01 12:47:11;;;;;;;7.00;3.70;;;;;;;;;;1790001;78;21003;-67
2022/12/01 12:49:48;;;;;;;10.45;4.20;;;;;;;;;;1787301;78;21031;-67
2022/12/01 12:52:19;;;;;;;7.58;4.37;;;;;;;;;;1788861;78;21031;-67
2022/12/01 12:54:53;;;;;;;10.28;5.35;;;;;;;;;;1780570;78;21057;-67
2022/12/01 12:57:21;;;;;;;8.93;5.10;;;;;;;;;;1764882;78;21091;-66
2022/12/01 12:59:49;;;;;;;8.65;4.40;;;;;;;;;;1791585;78;21083;-67
2022/12/01 13:02:17;;;;;;;8.40;4.97;;;;;;;;;;1794211;79;21040;-67
2022/12/01 13:04:51;;;;;;;11.10;5.30;;;;;;;;;;1790509;79;21009;-66
2022/12/01 13:07:31;;;;;;;9.93;5.00;;;;;;;;;;1800846;79;21032;-67
2022/12/01 13:09:59;;;;;;;10.98;4.83;;;;;;;;;;1794444;79;21509;-65
2022/12/01 13:12:34;;;;;;;8.00;3.80;;;;;;;;;;1790492;79;21032;-67
2022/12/01 13:15:03;;;;;;;8.80;4.42;;;;;;;;;;1795377;78;21488;-66
2022/12/01 13:17:31;;;;;;;8.30;4.37;;;;;;;;;;1788341;78;21037;-67
2022/12/01 13:19:57;;;;;;;9.43;4.22;;;;;;;;;;1797416;79;21067;-68
2022/12/01 13:22:25;;;;;;;6.20;4.00;;;;;;;;;;1789997;79;21041;-68
2022/12/01 13:24:51;;;;;;;7.78;4.33;;;;;;;;;;1792170;79;21092;-67
2022/12/01 13:27:18;;;;;;;7.03;3.70;;;;;;;;;;1792585;79;21498;-65
2022/12/01 13:29:48;;;;;;;12.82;6.15;;;;;;;;;;1791364;79;21060;-69
2022/12/01 13:32:34;;;;;;;8.05;4.62;;;;;;;;;;1776553;79;21052;-67
2022/12/01 13:35:01;;;;;;;7.55;4.78;;;;;;;;;;1778686;79;21033;-68
2022/12/01 13:37:28;;;;;;;10.63;5.28;;;;;;;;;;1781058;79;21030;-67
2022/12/01 13:39:55;;;;;;;9.65;3.92;;;;;;;;;;1789950;79;21112;-68
2022/12/01 13:42:24;;;;;;;10.50;4.60;;;;;;;;;;1782714;79;21026;-69
2022/12/01 13:45:00;;;;;;;11.57;4.00;;;;;;;;;;1786072;79;21006;-70
2022/12/01 13:47:30;;;;;;;8.63;4.47;;;;;;;;;;1786015;79;21018;-69
2022/12/01 13:49:57;;;;;;;5.85;3.90;;;;;;;;;;1781967;79;20990;-70
2022/12/01 13:52:25;;;;;;;6.05;3.35;;;;;;;;;;1783175;79;21532;-70
2022/12/01 13:55:09;;;;;;;7.30;3.62;;;;;;;;;;1782904;79;21010;-67
2022/12/01 13:57:55;;;;;;;7.22;3.60;;;;;;;;;;1768724;79;21056;-67
2022/12/01 14:00:23;;;;;;;4.47;2.77;;;;;;;;;;1775789;79;21034;-67
2022/12/01 14:03:08;;;;;;;6.40;3.92;;;;;;;;;;1773385;79;21021;-67
2022/12/01 14:05:36;;;;;;;5.42;3.45;;;;;;;;;;1773699;79;21404;-67
2022/12/01 14:08:03;;;;;;;6.20;3.35;;;;;;;;;;1779798;79;21599;-67
2022/12/01 14:10:29;;;;;;;6.58;3.47;;;;;;;;;;1754523;79;21057;-67
2022/12/01 14:12:57;;;;;;;6.62;3.47;;;;;;;;;;1794233;79;21029;-67
2022/12/01 14:15:25;;;;;;;7.53;3.40;;;;;;;;;;1780808;79;21021;-66
2022/12/01 14:17:58;;;;;;;9.00;3.67;;;;;;;;;;1785385;79;21565;-68
2022/12/01 14:20:24;;;;;;;7.22;3.80;;;;;;;;;;1786289;79;21143;-67
2022/12/01 14:23:03;;;;;;;6.50;3.33;;;;;;;;;;1782686;79;21005;-68
2022/12/01 14:25:30;;;;;;;6.83;3.55;;;;;;;;;;1781436;79;21032;-68
2022/12/01 14:27:58;;;;;;;6.17;3.10;;;;;;;;;;1775418;79;20986;-68
2022/12/01 14:30:45;;;;;;;7.53;3.75;;;;;;;;;;1786136;79;21037;-67
2022/12/01 14:33:31;;;;;;;8.98;4.08;;;;;;;;;;1782581;79;21554;-68
2022/12/01 14:35:58;;;;;;;7.33;3.75;;;;;;;;;;1784548;79;21324;-68
2022/12/01 14:38:24;;;;;;;9.05;3.70;;;;;;;;;;1779237;79;21084;-67
2022/12/01 14:40:50;;;;;;;6.87;3.90;;;;;;;;;;1771447;79;20962;-69
2022/12/01 14:46:08;;;;;;;7.55;4.20;;;;;;;;;;1780682;79;21124;-67
2022/12/01 14:48:36;;;;;;;6.17;3.58;;;;;;;;;;1783127;79;20982;-68
2022/12/01 14:51:17;;;;;;;8.60;3.67;;;;;;;;;;1791513;79;20994;-68
2022/12/01 14:53:44;;;;;;;8.43;4.12;;;;;;;;;;1787321;79;21496;-68
2022/12/01 14:56:12;;;;;;;8.85;4.67;;;;;;;;;;1787181;79;21017;-68
2022/12/01 14:58:38;;;;;;;9.05;4.67;;;;;;;;;;1789078;79;21504;-67
2022/12/01 15:01:11;;;;;;;8.10;4.30;;;;;;;;;;1793275;79;21064;-67
2022/12/01 15:03:39;;;;;;;6.45;4.15;;;;;;;;;;1788845;79;21032;-67
2022/12/01 15:06:07;;;;;;;9.88;4.22;;;;;;;;;;1783688;79;21378;-69
2022/12/01 15:08:35;;;;;;;11.15;5.17;;;;;;;;;;1787243;79;21030;-70
2022/12/01 15:11:02;;;;;;;8.50;4.47;;;;;;;;;;1782078;79;21075;-68
2022/12/01 15:13:29;;;;;;;13.78;6.42;;;;;;;;;;1784898;79;21101;-69
2022/12/01 15:15:57;;;;;;;8.50;4.53;;;;;;;;;;1779867;79;21155;-69
2022/12/01 15:18:28;;;;;;;10.13;4.60;;;;;;;;;;1779794;79;20997;-69
2022/12/01 15:20:58;;;;;;;9.63;4.37;;;;;;;;;;1784463;79;21009;-70
2022/12/01 15:23:25;;;;;;;7.80;3.85;;;;;;;;;;1782322;79;20985;-68
2022/12/01 15:25:51;;;;;;;11.05;5.15;;;;;;;;;;1782652;79;20996;-68
2022/12/01 15:28:18;;;;;;;8.18;4.37;;;;;;;;;;1780923;79;21002;-68
2022/12/01 15:30:46;;;;;;;10.35;3.70;;;;;;;;;;1779247;79;21044;-69
2022/12/01 15:33:16;;;;;;;10.63;5.10;;;;;;;;;;1784877;79;21046;-68
2022/12/01 15:35:45;;;;;;;8.73;4.47;;;;;;;;;;1781351;78;21067;-69
2022/12/01 15:50:40;;;;;;;9.18;5.30;;;;;;;;;;1770995;79;28095;-61
2022/12/01 15:53:18;;;;;;;9.95;5.58;;;;;;;;;;1732925;83;21063;-61
2022/12/01 15:55:45;;;;;;;11.78;5.92;;;;;;;;;;1731889;83;21516;-60
2022/12/01 15:58:13;;;;;;;10.95;5.95;;;;;;;;;;1731513;82;21072;-60
2022/12/01 16:00:39;;;;;;;9.15;6.15;;;;;;;;;;1742072;80;21059;-60
2022/12/01 16:03:07;;;;;;;8.85;6.33;;;;;;;;;;1734772;82;21119;-60
2022/12/01 16:05:34;;;;;;;10.65;6.00;;;;;;;;;;1739765;82;21032;-60
2022/12/01 16:08:14;;;;;;;10.35;5.83;;;;;;;;;;1741363;82;21048;-60
2022/12/01 16:10:40;;;;;;;12.28;5.97;;;;;;;;;;1744065;81;21566;-61
2022/12/01 16:13:26;;;;;;;9.28;5.40;;;;;;;;;;1738798;82;21080;-60
2022/12/01 16:15:52;;;;;;;12.43;6.20;;;;;;;;;;1743422;82;21079;-59
2022/12/01 16:18:26;;;;;;;12.45;7.45;;;;;;;;;;1753251;82;21040;-60
2022/12/01 16:20:52;;;;;;;15.88;7.20;;;;;;;;;;1744085;82;21091;-59
2022/12/01 16:23:21;;;;;;;13.13;6.33;;;;;;;;;;1754251;82;21115;-60
2022/12/01 16:25:47;;;;;;;9.88;5.28;;;;;;;;;;1739833;82;21050;-60
2022/12/01 16:28:21;;;;;;;11.57;5.78;;;;;;;;;;1708759;84;21039;-60
2022/12/01 16:30:47;;;;;;;11.85;5.62;;;;;;;;;;1725283;82;21064;-61
2022/12/01 16:33:15;;;;;;;15.70;6.42;;;;;;;;;;1726250;82;21087;-60
2022/12/01 16:35:42;;;;;;;12.85;4.95;;;;;;;;;;1724361;83;21025;-62
2022/12/01 16:38:14;;;;;;;10.25;4.92;;;;;;;;;;1734939;81;21126;-60
2022/12/01 16:40:41;;;;;;;11.78;5.12;;;;;;;;;;1735261;82;21059;-60
2022/12/01 16:43:09;;;;;;;10.82;4.70;;;;;;;;;;1739601;82;21055;-60
2022/12/01 16:45:35;;;;;;;11.00;4.50;;;;;;;;;;1739236;82;21062;-60
2022/12/01 16:48:02;;;;;;;11.05;5.20;;;;;;;;;;1739634;81;21066;-60
2022/12/01 16:50:28;;;;;;;10.72;5.22;;;;;;;;;;1732482;81;21114;-61
2022/12/01 16:52:55;;;;;;;9.90;4.58;;;;;;;;;;1730930;83;21483;-61
2022/12/01 16:55:37;;;;;;;9.90;5.40;;;;;;;;;;1730873;83;21079;-61
2022/12/01 16:58:03;;;;;;;10.10;4.60;;;;;;;;;;1730928;83;20979;-60
2022/12/01 17:00:29;;;;;;;7.75;4.50;;;;;;;;;;1730960;83;21430;-60
2022/12/01 17:02:56;;;;;;;8.40;4.83;;;;;;;;;;1710599;83;21069;-60
2022/12/01 17:05:22;;;;;;;8.08;4.85;;;;;;;;;;1730718;83;21565;-60
2022/12/01 17:07:48;;;;;;;9.13;4.10;;;;;;;;;;1730860;82;21070;-61
2022/12/01 17:10:14;;;;;;;8.95;4.87;;;;;;;;;;1710982;84;21081;-61
2022/12/01 17:12:42;;;;;;;7.60;4.47;;;;;;;;;;1730596;83;21028;-61
2022/12/01 17:15:09;;;;;;;8.30;4.10;;;;;;;;;;1730376;83;21004;-61
2022/12/01 17:17:35;;;;;;;10.20;4.37;;;;;;;;;;1730788;83;21113;-61
2022/12/01 17:20:03;;;;;;;10.90;4.78;;;;;;;;;;1730856;83;21031;-61
2022/12/01 17:22:29;;;;;;;7.47;4.50;;;;;;;;;;1729848;83;21007;-60
2022/12/01 17:24:55;;;;;;;7.80;4.05;;;;;;;;;;1731188;83;21031;-61
2022/12/01 17:27:23;;;;;;;9.63;4.08;;;;;;;;;;1730455;83;21546;-60
2022/12/01 17:29:49;;;;;;;7.75;4.00;;;;;;;;;;1731030;83;21213;-60
2022/12/01 17:32:15;;;;;;;8.48;4.72;;;;;;;;;;1731063;83;21063;-61
2022/12/01 17:34:41;;;;;;;9.05;3.80;;;;;;;;;;1730868;83;21090;-61
2022/12/01 17:37:07;;;;;;;8.08;3.95;;;;;;;;;;1730798;83;21122;-61
2022/12/01 17:39:34;;;;;;;9.60;3.95;;;;;;;;;;1727798;82;21102;-61
2022/12/01 17:42:00;;;;;;;9.95;5.30;;;;;;;;;;1723602;82;21048;-61
2022/12/01 17:44:26;;;;;;;9.80;4.15;;;;;;;;;;1723842;82;21039;-61
2022/12/01 17:46:52;;;;;;;8.40;4.25;;;;;;;;;;1729521;82;21000;-61
2022/12/01 17:49:18;;;;;;;9.35;4.22;;;;;;;;;;1720685;82;21256;-61
2022/12/01 17:51:44;;;;;;;12.78;4.75;;;;;;;;;;1710735;83;20969;-61
2022/12/01 17:54:11;;;;;;;17.05;7.58;;;;;;;;;;1707940;83;21570;-61
2022/12/01 17:56:37;;;;;;;19.12;7.95;;;;;;;;;;1710676;83;21087;-61
2022/12/01 17:59:03;;;;;;;17.90;7.60;;;;;;;;;;1718044;83;21071;-61
2022/12/01 18:01:30;;;;;;;11.90;5.65;;;;;;;;;;1741228;81;21036;-61
2022/12/01 18:03:56;;;;;;;12.20;5.30;;;;;;;;;;1724706;82;21041;-62
2022/12/01 18:06:24;;;;;;;9.85;5.10;;;;;;;;;;1716404;83;21064;-61
2022/12/01 18:08:52;;;;;;;11.08;5.70;;;;;;;;;;1755705;81;21041;-61
2022/12/01 18:11:18;;;;;;;10.93;4.90;;;;;;;;;;1720386;83;21052;-61
2022/12/01 18:13:45;;;;;;;9.78;5.03;;;;;;;;;;1718278;83;21002;-59
2022/12/01 18:16:13;;;;;;;9.10;5.45;;;;;;;;;;1716287;83;20982;-60
2022/12/01 18:18:39;;;;;;;12.00;5.25;;;;;;;;;;1721030;83;21029;-60
2022/12/01 18:21:09;;;;;;;9.78;5.30;;;;;;;;;;1713021;83;21052;-59
2022/12/01 18:23:36;;;;;;;13.53;4.92;;;;;;;;;;1720397;82;21052;-60
2022/12/01 18:26:03;;;;;;;12.53;5.40;;;;;;;;;;1716567;82;21015;-60
2022/12/01 18:28:30;;;;;;;9.00;5.17;;;;;;;;;;1719724;82;21499;-61
2022/12/01 18:30:58;;;;;;;17.57;6.37;;;;;;;;;;1724593;82;21102;-61
2022/12/01 18:33:25;;;;;;;11.45;5.95;;;;;;;;;;1718640;82;21058;-60
2022/12/01 18:35:51;;;;;;;8.85;5.15;;;;;;;;;;1717225;83;21075;-60